sensor_id;sensor_type;location;lat;lon;timestamp;pressure;altitude;pressure_sealevel;temperature;humidity
53699;BME280;68408;53.952;27.612;2023-03-15T00:09:17;994.9;;;9.8;50.2
53699;BME280;68408;53.952;27.612;2023-03-15T00:13:43;995;;;9.9;50.1
53699;BME280;68408;53.952;27.612;2023-03-15T00:18:41;995;;;9.9;50.1
53699;BME280;68408;53.952;27.612;2023-03-15T00:23:27;995;;;9.8;50.2
53699;BME280;68408;53.952;27.612;2023-03-15T00:29:17;995;;;9.9;50
53699;BME280;68408;53.952;27.612;2023-03-15T00:33:27;995;;;9.9;49.9
53699;BME280;68408;53.952;27.612;2023-03-15T00:38:36;995;;;9.9;49.9
53699;BME280;68408;53.952;27.612;2023-03-15T00:44:15;995;;;9.9;49.9
53699;BME280;68408;53.952;27.612;2023-03-15T00:48:47;995;;;9.9;49.9
53699;BME280;68408;53.952;27.612;2023-03-15T00:53:48;995;;;9.9;49.9
53699;BME280;68408;53.952;27.612;2023-03-15T00:58:47;995.1;;;9.8;50
53699;BME280;68408;53.952;27.612;2023-03-15T01:04:17;995.1;;;9.8;50
53699;BME280;68408;53.952;27.612;2023-03-15T01:08:27;995.1;;;9.8;50.4
53699;BME280;68408;53.952;27.612;2023-03-15T01:14:03;995.2;;;9.7;50.7
53699;BME280;68408;53.952;27.612;2023-03-15T01:19:03;995.3;;;9.7;51.5
53699;BME280;68408;53.952;27.612;2023-03-15T01:23:59;995.3;;;9.6;52
53699;BME280;68408;53.952;27.612;2023-03-15T01:28:27;995.2;;;9.6;52.3
53699;BME280;68408;53.952;27.612;2023-03-15T01:34:01;995.3;;;9.5;52.4
53699;BME280;68408;53.952;27.612;2023-03-15T01:39:15;995.2;;;9.5;52.5
53699;BME280;68408;53.952;27.612;2023-03-15T01:44:18;995.3;;;9.5;52.9
53699;BME280;68408;53.952;27.612;2023-03-15T01:48:36;995.3;;;9.5;53
53699;BME280;68408;53.952;27.612;2023-03-15T01:54:18;995.4;;;9.4;53.3
53699;BME280;68408;53.952;27.612;2023-03-15T01:58:55;995.6;;;9.4;53.6
53699;BME280;68408;53.952;27.612;2023-03-15T02:03:37;995.6;;;9.4;54
53699;BME280;68408;53.952;27.612;2023-03-15T02:08:48;995.6;;;9.3;54.6
53699;BME280;68408;53.952;27.612;2023-03-15T02:14:17;995.7;;;9.2;54.8
53699;BME280;68408;53.952;27.612;2023-03-15T02:19:19;995.7;;;9.1;55.2
53699;BME280;68408;53.952;27.612;2023-03-15T02:23:29;995.6;;;9.1;55.5
53699;BME280;68408;53.952;27.612;2023-03-15T02:29:17;995.7;;;9;55.8
53699;BME280;68408;53.952;27.612;2023-03-15T02:33:37;995.7;;;8.9;56.1
53699;BME280;68408;53.952;27.612;2023-03-15T02:38:50;995.8;;;8.8;56.4
53699;BME280;68408;53.952;27.612;2023-03-15T02:43:48;995.8;;;8.8;56.5
53699;BME280;68408;53.952;27.612;2023-03-15T02:48:27;995.7;;;8.7;56.4
53699;BME280;68408;53.952;27.612;2023-03-15T02:54:03;995.7;;;8.6;56.6
53699;BME280;68408;53.952;27.612;2023-03-15T02:58:27;995.6;;;8.5;56.5
53699;BME280;68408;53.952;27.612;2023-03-15T03:03:47;995.6;;;8.4;56.6
53699;BME280;68408;53.952;27.612;2023-03-15T03:09:03;995.7;;;8.4;56.4
53699;BME280;68408;53.952;27.612;2023-03-15T03:14:17;995.7;;;8.4;56.4
53699;BME280;68408;53.952;27.612;2023-03-15T03:18:51;995.8;;;8.3;56.1
53699;BME280;68408;53.952;27.612;2023-03-15T03:23:49;995.8;;;8.3;55.9
53699;BME280;68408;53.952;27.612;2023-03-15T03:28:35;995.9;;;8.3;55.8
53699;BME280;68408;53.952;27.612;2023-03-15T03:34:01;996;;;8.3;55.7
53699;BME280;68408;53.952;27.612;2023-03-15T03:38:35;995.9;;;8.2;55.5
53699;BME280;68408;53.952;27.612;2023-03-15T03:43:27;996;;;8.2;55.4
53699;BME280;68408;53.952;27.612;2023-03-15T03:49:17;996;;;8.1;55.2
53699;BME280;68408;53.952;27.612;2023-03-15T03:53:47;996.1;;;8.1;55
53699;BME280;68408;53.952;27.612;2023-03-15T03:58:35;996.1;;;8.1;54.9
53699;BME280;68408;53.952;27.612;2023-03-15T04:04:01;996.3;;;8;54.7
53699;BME280;68408;53.952;27.612;2023-03-15T04:09:17;996.3;;;8;54.7
53699;BME280;68408;53.952;27.612;2023-03-15T04:13:35;996.3;;;8;54.8
53699;BME280;68408;53.952;27.612;2023-03-15T04:19:03;996.4;;;7.9;54.7
53699;BME280;68408;53.952;27.612;2023-03-15T04:24:17;996.5;;;7.9;54.8
53699;BME280;68408;53.952;27.612;2023-03-15T04:28:27;996.6;;;7.9;54.8
53699;BME280;68408;53.952;27.612;2023-03-15T04:33:27;996.7;;;7.8;54.9
53699;BME280;68408;53.952;27.612;2023-03-15T04:38:49;996.7;;;7.8;55
53699;BME280;68408;53.952;27.612;2023-03-15T04:44:17;996.8;;;7.8;55.3
53699;BME280;68408;53.952;27.612;2023-03-15T04:49:01;996.8;;;7.8;56
53699;BME280;68408;53.952;27.612;2023-03-15T04:53:27;996.8;;;7.7;56.6
53699;BME280;68408;53.952;27.612;2023-03-15T04:59:17;996.9;;;7.7;56.8
53699;BME280;68408;53.952;27.612;2023-03-15T05:03:59;997;;;7.6;57.3
53699;BME280;68408;53.952;27.612;2023-03-15T05:08:43;997;;;7.5;57.6
53699;BME280;68408;53.952;27.612;2023-03-15T05:13:28;997;;;7.5;58
53699;BME280;68408;53.952;27.612;2023-03-15T05:19:17;997;;;7.5;58.3
53699;BME280;68408;53.952;27.612;2023-03-15T05:23:35;997.1;;;7.5;58.6
53699;BME280;68408;53.952;27.612;2023-03-15T05:28:59;997.1;;;7.5;59.2
53699;BME280;68408;53.952;27.612;2023-03-15T05:34:15;997.1;;;7.4;60
53699;BME280;68408;53.952;27.612;2023-03-15T05:38:47;997.2;;;7.4;60.4
53699;BME280;68408;53.952;27.612;2023-03-15T05:43:55;997.2;;;7.4;60.7
53699;BME280;68408;53.952;27.612;2023-03-15T05:48:47;997.3;;;7.4;60.4
53699;BME280;68408;53.952;27.612;2023-03-15T05:53:45;997.4;;;7.5;60.2
53699;BME280;68408;53.952;27.612;2023-03-15T05:59:01;997.6;;;7.5;60.1
53699;BME280;68408;53.952;27.612;2023-03-15T06:03:45;997.6;;;7.6;59.9
53699;BME280;68408;53.952;27.612;2023-03-15T06:08:27;997.6;;;7.6;59.3
53699;BME280;68408;53.952;27.612;2023-03-15T06:14:01;997.6;;;7.8;59
53699;BME280;68408;53.952;27.612;2023-03-15T06:19:15;997.7;;;7.9;58.5
53699;BME280;68408;53.952;27.612;2023-03-15T06:23:44;997.8;;;8;58.1
53699;BME280;68408;53.952;27.612;2023-03-15T06:28:47;997.9;;;8;58.1
53699;BME280;68408;53.952;27.612;2023-03-15T06:33:27;997.9;;;8.1;57.7
53699;BME280;68408;53.952;27.612;2023-03-15T06:39:17;997.9;;;8.3;57
53699;BME280;68408;53.952;27.612;2023-03-15T06:43:35;997.9;;;8.4;56.2
53699;BME280;68408;53.952;27.612;2023-03-15T06:48:28;998;;;8.5;55.9
53699;BME280;68408;53.952;27.612;2023-03-15T06:54:17;998;;;8.5;55.6
53699;BME280;68408;53.952;27.612;2023-03-15T06:58:47;997.9;;;8.5;55.3
53699;BME280;68408;53.952;27.612;2023-03-15T07:03:27;997.9;;;8.4;55.1
53699;BME280;68408;53.952;27.612;2023-03-15T07:08:27;998;;;8.3;54.9
53699;BME280;68408;53.952;27.612;2023-03-15T07:14:17;998.1;;;8.4;54.9
53699;BME280;68408;53.952;27.612;2023-03-15T07:18:27;998.2;;;8.6;54.6
53699;BME280;68408;53.952;27.612;2023-03-15T07:24:17;998.3;;;8.8;54.4
53699;BME280;68408;53.952;27.612;2023-03-15T07:29:15;998.3;;;8.9;54
53699;BME280;68408;53.952;27.612;2023-03-15T07:33:28;998.3;;;9;53.6
53699;BME280;68408;53.952;27.612;2023-03-15T07:38:49;998.4;;;9.3;53.1
53699;BME280;68408;53.952;27.612;2023-03-15T07:43:59;998.3;;;9.6;52.5
53699;BME280;68408;53.952;27.612;2023-03-15T07:49:01;998.4;;;9.8;51.8
53699;BME280;68408;53.952;27.612;2023-03-15T07:54:13;998.5;;;9.7;51.8
53699;BME280;68408;53.952;27.612;2023-03-15T07:58:45;998.5;;;9.8;51.6
53699;BME280;68408;53.952;27.612;2023-03-15T08:04:15;998.5;;;10;51.1
53699;BME280;68408;53.952;27.612;2023-03-15T08:09:03;998.5;;;10.1;50.5
53699;BME280;68408;53.952;27.612;2023-03-15T08:13:27;998.6;;;10.3;50.4
53699;BME280;68408;53.952;27.612;2023-03-15T08:18:47;998.7;;;10.9;49.4
53699;BME280;68408;53.952;27.612;2023-03-15T08:24:15;998.8;;;11.5;48.3
53699;BME280;68408;53.952;27.612;2023-03-15T08:29:01;998.9;;;11.6;47.9
53699;BME280;68408;53.952;27.612;2023-03-15T08:33:51;999;;;11.5;47.9
53699;BME280;68408;53.952;27.612;2023-03-15T08:38:59;999;;;11.3;48.1
53699;BME280;68408;53.952;27.612;2023-03-15T08:43:27;999;;;11.2;48.4
53699;BME280;68408;53.952;27.612;2023-03-15T08:49:03;999.1;;;11.1;48.3
53699;BME280;68408;53.952;27.612;2023-03-15T08:54:13;999.1;;;10.9;48.7
53699;BME280;68408;53.952;27.612;2023-03-15T08:58:27;999.2;;;11;48.7
53699;BME280;68408;53.952;27.612;2023-03-15T09:04:01;999.4;;;11;48.7
53699;BME280;68408;53.952;27.612;2023-03-15T09:09:15;999.4;;;11.1;48.7
53699;BME280;68408;53.952;27.612;2023-03-15T09:13:35;999.5;;;11.1;48.7
53699;BME280;68408;53.952;27.612;2023-03-15T09:19:01;999.6;;;10.9;49
53699;BME280;68408;53.952;27.612;2023-03-15T09:24:01;999.5;;;10.7;49.4
53699;BME280;68408;53.952;27.612;2023-03-15T09:28:27;999.5;;;10.7;49.4
53699;BME280;68408;53.952;27.612;2023-03-15T09:33:47;999.5;;;10.8;49.4
53699;BME280;68408;53.952;27.612;2023-03-15T09:38:57;999.6;;;10.7;49.5
53699;BME280;68408;53.952;27.612;2023-03-15T09:44:15;999.7;;;10.7;50
53699;BME280;68408;53.952;27.612;2023-03-15T09:49:16;999.8;;;10.8;50
53699;BME280;68408;53.952;27.612;2023-03-15T09:53:28;999.9;;;10.8;50
53699;BME280;68408;53.952;27.612;2023-03-15T09:59:13;1000;;;10.9;49.9
53699;BME280;68408;53.952;27.612;2023-03-15T10:04:03;1000.1;;;10.7;50.2
53699;BME280;68408;53.952;27.612;2023-03-15T10:08:27;1000.4;;;10.5;51.6
53699;BME280;68408;53.952;27.612;2023-03-15T10:13:50;1000.7;;;9.5;55.4
53699;BME280;68408;53.952;27.612;2023-03-15T10:19:20;1000.8;;;8.5;57.9
53699;BME280;68408;53.952;27.612;2023-03-15T10:23:31;1000.9;;;7.8;59.7
53699;BME280;68408;53.952;27.612;2023-03-15T10:29:00;1001.1;;;7.3;61.1
53699;BME280;68408;53.952;27.612;2023-03-15T10:34:16;1001.3;;;6.8;62.4
53699;BME280;68408;53.952;27.612;2023-03-15T10:38:35;1001.4;;;6.4;62.9
53699;BME280;68408;53.952;27.612;2023-03-15T10:43:55;1001.6;;;6.1;64
53699;BME280;68408;53.952;27.612;2023-03-15T10:48:51;1001.6;;;5.8;65.1
53699;BME280;68408;53.952;27.612;2023-03-15T10:53:35;1001.6;;;5.6;65.7
53699;BME280;68408;53.952;27.612;2023-03-15T10:59:02;1001.7;;;5.4;66
53699;BME280;68408;53.952;27.612;2023-03-15T11:03:28;1001.8;;;5.3;66.5
53699;BME280;68408;53.952;27.612;2023-03-15T11:08:45;1002;;;5.2;66.5
53699;BME280;68408;53.952;27.612;2023-03-15T11:13:36;1002.1;;;5;67
53699;BME280;68408;53.952;27.612;2023-03-15T11:19:02;1002.2;;;4.9;67.8
53699;BME280;68408;53.952;27.612;2023-03-15T11:23:48;1002.3;;;4.8;68.1
53699;BME280;68408;53.952;27.612;2023-03-15T11:28:28;1002.4;;;4.7;68.3
53699;BME280;68408;53.952;27.612;2023-03-15T11:33:55;1002.5;;;4.6;68.8
53699;BME280;68408;53.952;27.612;2023-03-15T11:39:14;1002.6;;;4.5;68.7
53699;BME280;68408;53.952;27.612;2023-03-15T11:43:41;1002.6;;;4.4;69
53699;BME280;68408;53.952;27.612;2023-03-15T11:48:28;1002.7;;;4.4;69.1
53699;BME280;68408;53.952;27.612;2023-03-15T11:54:14;1002.7;;;4.4;69.3
53699;BME280;68408;53.952;27.612;2023-03-15T11:58:43;1002.8;;;4.4;69.1
53699;BME280;68408;53.952;27.612;2023-03-15T12:03:34;1002.9;;;4.3;69.7
53699;BME280;68408;53.952;27.612;2023-03-15T12:08:42;1003;;;4.2;70
53699;BME280;68408;53.952;27.612;2023-03-15T12:14:29;1003;;;4.2;70.6
53699;BME280;68408;53.952;27.612;2023-03-15T12:18:31;1003.1;;;4.2;70.2
53699;BME280;68408;53.952;27.612;2023-03-15T12:24:14;1003.2;;;4.1;70.3
53699;BME280;68408;53.952;27.612;2023-03-15T12:29:15;1003.2;;;4.2;70.4
53699;BME280;68408;53.952;27.612;2023-03-15T12:33:48;1003.3;;;4.2;70.4
53699;BME280;68408;53.952;27.612;2023-03-15T12:38:48;1003.4;;;4.2;70.3
53699;BME280;68408;53.952;27.612;2023-03-15T12:44:04;1003.4;;;4.2;70.4
53699;BME280;68408;53.952;27.612;2023-03-15T12:49:04;1003.5;;;4.1;70.5
53699;BME280;68408;53.952;27.612;2023-03-15T12:53:48;1003.5;;;4.1;70.3
53699;BME280;68408;53.952;27.612;2023-03-15T12:58:50;1003.6;;;4.1;70.5
53699;BME280;68408;53.952;27.612;2023-03-15T13:04:16;1003.7;;;4;70.9
53699;BME280;68408;53.952;27.612;2023-03-15T13:09:02;1003.7;;;3.9;71.3
53699;BME280;68408;53.952;27.612;2023-03-15T13:13:40;1003.8;;;3.8;71.8
53699;BME280;68408;53.952;27.612;2023-03-15T13:19:04;1004;;;3.8;72.1
53699;BME280;68408;53.952;27.612;2023-03-15T13:24:18;1004;;;3.8;71.8
53699;BME280;68408;53.952;27.612;2023-03-15T13:28:52;1004.1;;;3.8;71.7
53699;BME280;68408;53.952;27.612;2023-03-15T13:34:18;1004.1;;;3.8;71.7
53699;BME280;68408;53.952;27.612;2023-03-15T13:39:17;1004.2;;;3.8;71.4
53699;BME280;68408;53.952;27.612;2023-03-15T13:43:28;1004.2;;;3.8;71.4
53699;BME280;68408;53.952;27.612;2023-03-15T13:48:48;1004.2;;;3.9;71.1
53699;BME280;68408;53.952;27.612;2023-03-15T13:53:48;1004.2;;;3.9;71
53699;BME280;68408;53.952;27.612;2023-03-15T13:58:37;1004.2;;;4;71.2
53699;BME280;68408;53.952;27.612;2023-03-15T14:04:01;1004.3;;;4.1;70.8
53699;BME280;68408;53.952;27.612;2023-03-15T14:08:48;1004.4;;;4.1;70.5
53699;BME280;68408;53.952;27.612;2023-03-15T14:13:46;1004.4;;;4.1;70.6
53699;BME280;68408;53.952;27.612;2023-03-15T14:19:18;1004.5;;;4.1;71
53699;BME280;68408;53.952;27.612;2023-03-15T14:24:17;1004.6;;;4.2;70.8
53699;BME280;68408;53.952;27.612;2023-03-15T14:28:48;1004.5;;;4.2;70.5
53699;BME280;68408;53.952;27.612;2023-03-15T14:33:37;1004.4;;;4.2;70.5
53699;BME280;68408;53.952;27.612;2023-03-15T14:38:37;1004.6;;;4.2;70.6
53699;BME280;68408;53.952;27.612;2023-03-15T14:44:16;1004.6;;;4.1;70.8
53699;BME280;68408;53.952;27.612;2023-03-15T14:48:48;1004.6;;;4.2;70.7
53699;BME280;68408;53.952;27.612;2023-03-15T14:53:36;1004.7;;;4.2;70.5
53699;BME280;68408;53.952;27.612;2023-03-15T14:59:16;1004.8;;;4.1;70.5
53699;BME280;68408;53.952;27.612;2023-03-15T15:03:49;1004.8;;;4;70.7
53699;BME280;68408;53.952;27.612;2023-03-15T15:08:28;1004.8;;;3.9;71
53699;BME280;68408;53.952;27.612;2023-03-15T15:13:38;1004.9;;;3.8;71.3
53699;BME280;68408;53.952;27.612;2023-03-15T15:19:16;1004.9;;;3.8;71.6
53699;BME280;68408;53.952;27.612;2023-03-15T15:23:40;1004.9;;;3.7;71.8
53699;BME280;68408;53.952;27.612;2023-03-15T15:29:14;1005;;;3.7;72.1
53699;BME280;68408;53.952;27.612;2023-03-15T15:34:16;1005.1;;;3.7;72
53699;BME280;68408;53.952;27.612;2023-03-15T15:38:48;1005.1;;;3.7;72.1
53699;BME280;68408;53.952;27.612;2023-03-15T15:44:08;1005.1;;;3.7;71.9
53699;BME280;68408;53.952;27.612;2023-03-15T15:49:02;1005.1;;;3.7;71.8
53699;BME280;68408;53.952;27.612;2023-03-15T15:54:04;1005.1;;;3.6;71.8
53699;BME280;68408;53.952;27.612;2023-03-15T15:59:04;1005.2;;;3.6;71.8
53699;BME280;68408;53.952;27.612;2023-03-15T16:04:18;1005.2;;;3.5;71.8
53699;BME280;68408;53.952;27.612;2023-03-15T16:09:18;1005.2;;;3.5;72
53699;BME280;68408;53.952;27.612;2023-03-15T16:14:02;1005.3;;;3.5;72
53699;BME280;68408;53.952;27.612;2023-03-15T16:19:02;1005.4;;;3.5;71.9
53699;BME280;68408;53.952;27.612;2023-03-15T16:23:49;1005.4;;;3.5;71.9
53699;BME280;68408;53.952;27.612;2023-03-15T16:29:20;1005.5;;;3.5;71.9
53699;BME280;68408;53.952;27.612;2023-03-15T16:33:36;1005.6;;;3.4;72.1
53699;BME280;68408;53.952;27.612;2023-03-15T16:38:44;1005.6;;;3.4;72.2
53699;BME280;68408;53.952;27.612;2023-03-15T16:44:18;1005.6;;;3.4;72.2
53699;BME280;68408;53.952;27.612;2023-03-15T16:48:28;1005.7;;;3.3;72.3
53699;BME280;68408;53.952;27.612;2023-03-15T16:54:04;1005.8;;;3.3;72.5
53699;BME280;68408;53.952;27.612;2023-03-15T16:58:50;1005.8;;;3.3;72.9
53699;BME280;68408;53.952;27.612;2023-03-15T17:03:36;1005.9;;;3.4;72.8
53699;BME280;68408;53.952;27.612;2023-03-15T17:09:06;1006;;;3.4;72.5
53699;BME280;68408;53.952;27.612;2023-03-15T17:14:21;1006;;;3.4;72.5
53699;BME280;68408;53.952;27.612;2023-03-15T17:18:28;1006.1;;;3.4;72.5
53699;BME280;68408;53.952;27.612;2023-03-15T17:24:04;1006.1;;;3.3;72.6
53699;BME280;68408;53.952;27.612;2023-03-15T17:29:06;1006.1;;;3.3;72.6
53699;BME280;68408;53.952;27.612;2023-03-15T17:33:30;1006.2;;;3.4;72.6
53699;BME280;68408;53.952;27.612;2023-03-15T17:38:50;1006.3;;;3.5;72.4
53699;BME280;68408;53.952;27.612;2023-03-15T17:44:02;1006.3;;;3.5;72.3
53699;BME280;68408;53.952;27.612;2023-03-15T17:49:20;1006.4;;;3.6;72.1
53699;BME280;68408;53.952;27.612;2023-03-15T17:53:50;1006.5;;;3.7;71.8
53699;BME280;68408;53.952;27.612;2023-03-15T17:58:28;1006.6;;;3.8;71.6
53699;BME280;68408;53.952;27.612;2023-03-15T18:04:20;1006.6;;;3.8;71.4
53699;BME280;68408;53.952;27.612;2023-03-15T18:09:20;1006.6;;;3.9;71.1
53699;BME280;68408;53.952;27.612;2023-03-15T18:13:28;1006.6;;;3.9;71.1
53699;BME280;68408;53.952;27.612;2023-03-15T18:18:40;1006.7;;;3.9;71.1
53699;BME280;68408;53.952;27.612;2023-03-15T18:24:20;1006.8;;;3.8;71.1
53699;BME280;68408;53.952;27.612;2023-03-15T18:28:28;1006.9;;;3.9;71.2
53699;BME280;68408;53.952;27.612;2023-03-15T18:34:09;1007;;;3.9;71.2
53699;BME280;68408;53.952;27.612;2023-03-15T18:39:20;1007;;;3.9;71
53699;BME280;68408;53.952;27.612;2023-03-15T18:44:07;1007.1;;;3.9;71.1
53699;BME280;68408;53.952;27.612;2023-03-15T18:48:58;1007;;;3.9;71
53699;BME280;68408;53.952;27.612;2023-03-15T18:54:04;1007.1;;;3.9;70.9
53699;BME280;68408;53.952;27.612;2023-03-15T18:59:04;1007.1;;;3.9;70.9
53699;BME280;68408;53.952;27.612;2023-03-15T19:04:06;1007.1;;;4;70.8
53699;BME280;68408;53.952;27.612;2023-03-15T19:08:56;1007.2;;;4;70.8
53699;BME280;68408;53.952;27.612;2023-03-15T19:14:20;1007.2;;;4;70.8
53699;BME280;68408;53.952;27.612;2023-03-15T19:18:54;1007.1;;;4;70.6
53699;BME280;68408;53.952;27.612;2023-03-15T19:23:44;1007.1;;;4;70.5
53699;BME280;68408;53.952;27.612;2023-03-15T19:28:46;1007.2;;;4;70.9
53699;BME280;68408;53.952;27.612;2023-03-15T19:34:20;1007.2;;;3.9;71.1
53699;BME280;68408;53.952;27.612;2023-03-15T19:38:42;1007.3;;;3.9;71.2
53699;BME280;68408;53.952;27.612;2023-03-15T19:44:04;1007.3;;;3.9;71.3
53699;BME280;68408;53.952;27.612;2023-03-15T19:49:20;1007.3;;;4;71.1
53699;BME280;68408;53.952;27.612;2023-03-15T19:53:28;1007.3;;;4;71
53699;BME280;68408;53.952;27.612;2023-03-15T19:59:18;1007.3;;;4.1;70.9
53699;BME280;68408;53.952;27.612;2023-03-15T20:03:28;1007.3;;;4.1;70.7
53699;BME280;68408;53.952;27.612;2023-03-15T20:08:36;1007.3;;;4.1;70.8
53699;BME280;68408;53.952;27.612;2023-03-15T20:14:06;1007.3;;;4.1;70.8
53699;BME280;68408;53.952;27.612;2023-03-15T20:19:20;1007.3;;;4.1;70.8
53699;BME280;68408;53.952;27.612;2023-03-15T20:23:28;1007.3;;;4;71
53699;BME280;68408;53.952;27.612;2023-03-15T20:29:02;1007.4;;;4;71.2
53699;BME280;68408;53.952;27.612;2023-03-15T20:34:06;1007.3;;;4;71
53699;BME280;68408;53.952;27.612;2023-03-15T20:39:00;1007.3;;;4;71.1
53699;BME280;68408;53.952;27.612;2023-03-15T20:43:28;1007.3;;;4.1;71.1
53699;BME280;68408;53.952;27.612;2023-03-15T20:49:02;1007.4;;;4.1;70.9
53699;BME280;68408;53.952;27.612;2023-03-15T20:54:18;1007.4;;;4;71
53699;BME280;68408;53.952;27.612;2023-03-15T20:59:18;1007.4;;;4;71.3
53699;BME280;68408;53.952;27.612;2023-03-15T21:03:36;1007.4;;;4;71.4
53699;BME280;68408;53.952;27.612;2023-03-15T21:09:18;1007.4;;;4.1;71.1
53699;BME280;68408;53.952;27.612;2023-03-15T21:14:06;1007.4;;;4.1;71
53699;BME280;68408;53.952;27.612;2023-03-15T21:18:28;1007.5;;;4.1;71.1
53699;BME280;68408;53.952;27.612;2023-03-15T21:23:46;1007.6;;;4.1;71.1
53699;BME280;68408;53.952;27.612;2023-03-15T21:29:18;1007.6;;;4.1;71.1
53699;BME280;68408;53.952;27.612;2023-03-15T21:34:02;1007.8;;;4.1;71.1
53699;BME280;68408;53.952;27.612;2023-03-15T21:38:52;1007.8;;;4.2;71
53699;BME280;68408;53.952;27.612;2023-03-15T21:44:18;1007.8;;;4.2;70.9
53699;BME280;68408;53.952;27.612;2023-03-15T21:48:36;1007.8;;;4.2;70.8
53699;BME280;68408;53.952;27.612;2023-03-15T21:54:18;1007.9;;;4.2;70.5
53699;BME280;68408;53.952;27.612;2023-03-15T21:59:02;1007.9;;;4.2;70.4
53699;BME280;68408;53.952;27.612;2023-03-15T22:03:30;1007.9;;;4.2;70.3
53699;BME280;68408;53.952;27.612;2023-03-15T22:09:18;1007.9;;;4.2;70
53699;BME280;68408;53.952;27.612;2023-03-15T22:13:50;1008;;;4.2;70
53699;BME280;68408;53.952;27.612;2023-03-15T22:19:20;1008;;;4.2;70
53699;BME280;68408;53.952;27.612;2023-03-15T22:24:04;1008.1;;;4.2;69.8
53699;BME280;68408;53.952;27.612;2023-03-15T22:28:28;1008.1;;;4.3;69.9
53699;BME280;68408;53.952;27.612;2023-03-15T22:33:28;1008.2;;;4.2;70
53699;BME280;68408;53.952;27.612;2023-03-15T22:39:20;1008.2;;;4.2;69.8
53699;BME280;68408;53.952;27.612;2023-03-15T22:43:36;1008.2;;;4.2;70
53699;BME280;68408;53.952;27.612;2023-03-15T22:48:52;1008.2;;;4.2;69.9
53699;BME280;68408;53.952;27.612;2023-03-15T22:54:04;1008.2;;;4.2;70.1
53699;BME280;68408;53.952;27.612;2023-03-15T22:58:36;1008.3;;;4.1;70.2
53699;BME280;68408;53.952;27.612;2023-03-15T23:04:04;1008.3;;;4;70.1
53699;BME280;68408;53.952;27.612;2023-03-15T23:08:50;1008.4;;;3.9;70.1
53699;BME280;68408;53.952;27.612;2023-03-15T23:13:36;1008.4;;;3.7;70.5
53699;BME280;68408;53.952;27.612;2023-03-15T23:19:06;1008.4;;;3.7;70.8
53699;BME280;68408;53.952;27.612;2023-03-15T23:24:20;1008.4;;;3.7;70.9
53699;BME280;68408;53.952;27.612;2023-03-15T23:28:28;1008.5;;;3.7;70.6
53699;BME280;68408;53.952;27.612;2023-03-15T23:33:52;1008.4;;;3.6;70.5
53699;BME280;68408;53.952;27.612;2023-03-15T23:39:06;1008.4;;;3.5;70.6
53699;BME280;68408;53.952;27.612;2023-03-15T23:44:20;1008.5;;;3.5;70.7
53699;BME280;68408;53.952;27.612;2023-03-15T23:48:50;1008.6;;;3.5;70.5
53699;BME280;68408;53.952;27.612;2023-03-15T23:54:04;1008.7;;;3.4;70.8
53699;BME280;68408;53.952;27.612;2023-03-15T23:59:20;1008.6;;;3.4;70.9
